Time;durP1;ratioP1;P1;durP2;ratioP2;P2;SDS_P1;SDS_P2;PMS_P1;PMS_P2;Temp;Humidity;BMP_temperature;BMP_pressure;BME280_temperature;BME280_humidity;BME280_pressure;Samples;Min_cycle;Max_cycle;Signal;HPM_P1;HPM_P2
2022/01/01 00:01:46;;;;;;;145.45;33.80;;;;;;;5.32;100.00;100301.97;6380035;27;20050;-81
2022/01/01 00:04:47;;;;;;;301.83;47.17;;;;;;;5.22;100.00;100299.69;6380058;27;20039;-81
2022/01/01 00:07:48;;;;;;;239.73;46.10;;;;;;;5.20;100.00;100290.31;6380243;27;20090;-81
2022/01/01 00:10:49;;;;;;;206.30;44.03;;;;;;;5.30;100.00;100290.81;6398110;27;20043;-81
2022/01/01 00:13:50;;;;;;;245.10;40.75;;;;;;;5.29;100.00;100282.19;6398626;27;20054;-80
2022/01/01 00:16:51;;;;;;;185.15;37.80;;;;;;;5.33;100.00;100280.34;6362570;27;20475;-80
2022/01/01 00:19:52;;;;;;;242.35;33.40;;;;;;;5.37;100.00;100274.16;6379948;27;20443;-80
2022/01/01 00:22:52;;;;;;;117.85;32.03;;;;;;;5.42;100.00;100256.75;6398121;27;20103;-80
2022/01/01 00:25:53;;;;;;;145.88;28.73;;;;;;;5.33;100.00;100259.66;6396866;27;20046;-80
2022/01/01 00:28:54;;;;;;;129.25;28.83;;;;;;;5.18;100.00;100246.38;6396957;27;20487;-80
2022/01/01 00:31:54;;;;;;;172.63;26.50;;;;;;;5.08;100.00;100239.00;6396588;27;20039;-80
2022/01/01 00:34:55;;;;;;;136.32;26.23;;;;;;;5.12;100.00;100238.81;6379191;27;20035;-80
2022/01/01 00:37:56;;;;;;;172.05;26.50;;;;;;;5.07;100.00;100245.09;6379510;27;20049;-87
2022/01/01 00:40:57;;;;;;;161.95;28.20;;;;;;;4.98;100.00;100239.34;6379832;27;20034;-81
2022/01/01 00:43:58;;;;;;;119.03;24.45;;;;;;;5.32;100.00;100248.47;6379669;27;20406;-80
2022/01/01 00:46:59;;;;;;;133.95;26.95;;;;;;;5.37;100.00;100251.72;6362652;27;20043;-81
2022/01/01 00:50:00;;;;;;;136.35;25.23;;;;;;;5.50;100.00;100248.69;6398010;27;20356;-80
2022/01/01 00:53:02;;;;;;;125.60;22.55;;;;;;;5.44;100.00;100245.44;6396581;27;20039;-80
2022/01/01 00:56:03;;;;;;;128.33;26.00;;;;;;;5.40;100.00;100232.66;6396973;27;20035;-87
2022/01/01 00:59:04;;;;;;;144.82;24.60;;;;;;;5.37;100.00;100227.59;6382342;27;20039;-80
2022/01/01 01:02:05;;;;;;;144.25;22.77;;;;;;;5.07;100.00;100232.16;6401511;27;20444;-81
2022/01/01 01:05:06;;;;;;;79.10;22.27;;;;;;;4.69;100.00;100222.22;6384149;27;20039;-80
2022/01/01 01:08:08;;;;;;;131.77;23.42;;;;;;;4.93;100.00;100223.13;6390373;27;20043;-86
2022/01/01 01:11:09;;;;;;;192.32;24.23;;;;;;;5.14;100.00;100233.59;6377202;27;20130;-80
2022/01/01 01:14:18;;;;;;;150.05;24.77;;;;;;;5.17;100.00;100230.91;6375056;27;20062;-80
2022/01/01 01:17:20;;;;;;;102.40;24.15;;;;;;;5.23;100.00;100220.34;6359144;27;20074;-80
2022/01/01 01:20:21;;;;;;;216.30;25.67;;;;;;;5.27;100.00;100228.81;6375015;27;20046;-80
2022/01/01 01:23:22;;;;;;;199.77;24.60;;;;;;;5.28;100.00;100228.78;6340945;27;20127;-79
2022/01/01 01:26:23;;;;;;;293.38;25.63;;;;;;;5.33;100.00;100213.91;6374720;27;20146;-80
2022/01/01 01:29:24;;;;;;;219.03;26.53;;;;;;;5.34;100.00;100204.44;6357878;27;20431;-80
2022/01/01 01:32:25;;;;;;;211.30;24.50;;;;;;;5.33;100.00;100195.81;6375720;27;20038;-80
2022/01/01 01:35:26;;;;;;;212.30;23.45;;;;;;;5.24;100.00;100203.91;6375610;27;20498;-80
2022/01/01 01:38:27;;;;;;;202.32;23.95;;;;;;;5.32;100.00;100198.47;6357671;27;20050;-86
2022/01/01 01:41:30;;;;;;;94.30;21.40;;;;;;;5.36;100.00;100207.81;6376289;27;20039;-86
2022/01/01 01:44:35;;;;;;;149.75;22.40;;;;;;;5.40;100.00;100207.63;6357107;27;20519;-81
2022/01/01 01:47:38;;;;;;;254.27;25.27;;;;;;;5.41;100.00;100203.28;6374493;27;20087;-80
2022/01/01 01:50:38;;;;;;;;;;;;;;;5.49;100.00;100200.44;6375634;27;20039;-86
2022/01/01 01:53:40;;;;;;;104.60;20.27;;;;;;;5.55;100.00;100197.59;6374798;27;19930;-80
2022/01/01 01:56:42;;;;;;;179.20;21.42;;;;;;;5.45;100.00;100187.59;6374120;27;20039;-80
2022/01/01 01:59:45;;;;;;;224.70;23.63;;;;;;;5.55;100.00;100195.84;6374400;27;20047;-87
2022/01/01 02:02:46;;;;;;;142.90;22.08;;;;;;;5.54;100.00;100189.00;6357447;27;20047;-87
2022/01/01 02:05:47;;;;;;;123.45;22.52;;;;;;;5.47;100.00;100172.00;6374612;27;20046;-87
2022/01/01 02:08:52;;;;;;;168.23;21.87;;;;;;;5.53;100.00;100191.63;6374509;27;20043;-87
2022/01/01 02:11:53;;;;;;;145.20;20.35;;;;;;;5.54;100.00;100180.38;6357387;27;20055;-87
2022/01/01 02:18:01;;;;;;;99.00;18.75;;;;;;;5.43;100.00;100173.84;6374288;27;20403;-86
2022/01/01 02:21:01;;;;;;;111.57;20.30;;;;;;;5.40;100.00;100162.81;6356938;27;20039;-80
2022/01/01 02:24:04;;;;;;;122.45;20.23;;;;;;;5.41;100.00;100174.81;6356897;27;20039;-87
2022/01/01 02:27:05;;;;;;;138.88;20.58;;;;;;;5.15;100.00;100168.88;6373970;27;20051;-86
2022/01/01 02:30:08;;;;;;;82.82;18.92;;;;;;;4.95;100.00;100179.94;6375363;27;20047;-87
2022/01/01 02:33:10;;;;;;;99.25;20.73;;;;;;;4.77;100.00;100165.91;6356867;27;20035;-80
2022/01/01 02:36:11;;;;;;;89.88;18.48;;;;;;;4.86;100.00;100169.94;6356157;27;20046;-80
2022/01/01 02:39:18;;;;;;;126.90;18.80;;;;;;;4.80;100.00;100152.91;6356211;27;20054;-80
2022/01/01 02:42:21;;;;;;;150.40;19.92;;;;;;;4.71;100.00;100152.38;6374961;27;20039;-86
2022/01/01 02:45:21;;;;;;;174.60;19.30;;;;;;;4.77;100.00;100165.09;6374802;27;20043;-80
2022/01/01 02:48:23;;;;;;;183.50;19.83;;;;;;;5.03;100.00;100161.56;6374266;27;20095;-80
2022/01/01 02:51:24;;;;;;;107.18;18.02;;;;;;;5.17;100.00;100163.66;6356151;27;20398;-80
2022/01/01 02:54:25;;;;;;;88.82;17.85;;;;;;;5.29;100.00;100167.53;6372926;27;20046;-80
2022/01/01 02:57:26;;;;;;;105.55;17.45;;;;;;;5.34;100.00;100178.56;6373314;27;20043;-86
2022/01/01 03:00:27;;;;;;;105.88;17.45;;;;;;;5.29;100.00;100173.53;6356218;27;20043;-86
2022/01/01 03:03:28;;;;;;;86.85;21.25;;;;;;;5.32;100.00;100172.59;6374269;27;20039;-86
2022/01/01 03:06:29;;;;;;;185.75;18.85;;;;;;;4.97;100.00;100172.16;6373756;27;20077;-80
2022/01/01 03:09:38;;;;;;;137.38;19.55;;;;;;;4.90;100.00;100181.88;6338437;27;20583;-80
2022/01/01 03:12:39;;;;;;;102.20;18.13;;;;;;;4.90;100.00;100183.59;6356569;27;20058;-80
2022/01/01 03:15:41;;;;;;;75.95;18.00;;;;;;;4.90;100.00;100187.03;6372570;27;20046;-80
2022/01/01 03:18:41;;;;;;;98.95;19.00;;;;;;;4.90;100.00;100179.28;6374680;27;20476;-78
2022/01/01 03:21:44;;;;;;;35.60;17.90;;;;;;;4.94;100.00;100192.94;6355919;27;20403;-86
2022/01/01 03:24:45;;;;;;;82.40;19.00;;;;;;;4.95;100.00;100195.47;6374267;27;20039;-87
2022/01/01 03:27:45;;;;;;;162.63;20.10;;;;;;;4.92;100.00;100203.34;6372457;27;20035;-86
2022/01/01 03:30:46;;;;;;;77.85;17.50;;;;;;;4.91;100.00;100203.38;6373734;27;20063;-80
2022/01/01 03:33:47;;;;;;;79.13;18.60;;;;;;;4.89;100.00;100200.00;6372623;27;20081;-80
2022/01/01 03:36:48;;;;;;;159.07;19.70;;;;;;;4.96;100.00;100196.31;6337724;27;20051;-81
2022/01/01 03:39:49;;;;;;;82.15;19.63;;;;;;;4.98;100.00;100194.50;6373164;27;20050;-80
2022/01/01 03:42:50;;;;;;;115.30;17.88;;;;;;;4.97;100.00;100193.66;6372170;27;20035;-87
2022/01/01 03:45:51;;;;;;;189.93;21.42;;;;;;;4.94;100.00;100188.63;6355304;27;20513;-87
2022/01/01 03:48:52;;;;;;;122.22;19.10;;;;;;;4.99;100.00;100193.63;6354712;27;20036;-87
2022/01/01 03:51:52;;;;;;;136.38;19.98;;;;;;;4.97;100.00;100193.66;6355202;27;20088;-86
2022/01/01 03:54:53;;;;;;;110.57;18.27;;;;;;;4.91;100.00;100188.72;6355125;27;20043;-86
2022/01/01 03:57:54;;;;;;;178.55;19.80;;;;;;;4.99;100.00;100184.13;6372246;27;20040;-86
2022/01/01 04:00:55;;;;;;;223.43;19.75;;;;;;;4.94;100.00;100186.03;6371994;27;20472;-86
2022/01/01 04:03:56;;;;;;;114.95;19.48;;;;;;;4.99;100.00;100193.63;6372152;27;20043;-80
2022/01/01 04:06:57;;;;;;;108.47;18.55;;;;;;;4.98;100.00;100204.84;6370895;28;20050;-80
2022/01/01 04:09:58;;;;;;;94.97;18.27;;;;;;;4.98;100.00;100195.38;6354416;28;20111;-80
2022/01/01 04:13:01;;;;;;;95.82;18.35;;;;;;;5.02;100.00;100196.94;6397210;27;20043;-86
2022/01/01 04:16:02;;;;;;;;;;;;;;;5.05;100.00;100193.41;6378713;27;20066;-80
2022/01/01 04:19:02;;;;;;;77.07;17.02;;;;;;;5.08;100.00;100190.69;6372915;28;19926;-80
2022/01/01 04:22:03;;;;;;;96.15;19.75;;;;;;;5.10;100.00;100191.47;6355057;28;20142;-79
2022/01/01 04:25:05;;;;;;;198.70;20.08;;;;;;;5.04;100.00;100192.56;6372889;27;20376;-80
2022/01/01 04:28:06;;;;;;;68.50;19.10;;;;;;;5.10;100.00;100198.41;6354528;28;20501;-80
2022/01/01 04:31:07;;;;;;;136.98;20.13;;;;;;;5.09;100.00;100201.91;6354213;28;20043;-80
2022/01/01 04:34:07;;;;;;;82.68;19.00;;;;;;;5.06;100.00;100202.84;6374150;27;20051;-80
2022/01/01 04:37:12;;;;;;;81.30;20.48;;;;;;;5.08;100.00;100201.03;6342104;27;20047;-80
2022/01/01 04:40:14;;;;;;;90.95;20.48;;;;;;;5.08;100.00;100205.38;6377356;27;20471;-80
2022/01/01 04:43:14;;;;;;;39.63;19.02;;;;;;;4.96;100.00;100198.88;6377479;27;20035;-80
2022/01/01 04:46:16;;;;;;;50.33;20.00;;;;;;;5.06;100.00;100218.34;6377544;27;20043;-80
2022/01/01 04:49:16;;;;;;;37.85;19.80;;;;;;;4.99;100.00;100222.91;6359339;27;20074;-80
2022/01/01 04:52:17;;;;;;;46.13;19.83;;;;;;;4.96;100.00;100212.69;6359195;27;20031;-80
2022/01/01 04:55:18;;;;;;;45.58;20.48;;;;;;;5.01;100.00;100228.88;6377130;27;20395;-80
2022/01/01 04:58:19;;;;;;;38.55;19.73;;;;;;;4.99;100.00;100204.81;6376070;27;20043;-81
2022/01/01 05:01:20;;;;;;;42.15;20.33;;;;;;;5.13;100.00;100231.94;6376177;27;20415;-81
2022/01/01 05:04:21;;;;;;;42.30;19.15;;;;;;;5.09;100.00;100225.19;6341522;27;20074;-80
2022/01/01 05:07:21;;;;;;;37.70;19.50;;;;;;;5.08;100.00;100229.47;6374877;27;20065;-81
2022/01/01 05:10:24;;;;;;;60.03;18.95;;;;;;;5.12;100.00;100231.06;6340933;27;20502;-80
2022/01/01 05:13:25;;;;;;;41.20;18.35;;;;;;;5.13;100.00;100226.75;6359503;27;20086;-87
2022/01/01 05:16:26;;;;;;;55.50;21.30;;;;;;;5.20;100.00;100229.03;6376425;27;20444;-87
2022/01/01 05:19:26;;;;;;;74.22;24.38;;;;;;;5.16;100.00;100231.81;6377575;27;20042;-86
2022/01/01 05:22:27;;;;;;;93.75;22.17;;;;;;;5.23;100.00;100248.81;6376287;27;20066;-87
2022/01/01 05:25:28;;;;;;;64.65;22.30;;;;;;;5.35;100.00;100258.69;6358869;27;20122;-80
2022/01/01 05:28:30;;;;;;;113.45;23.02;;;;;;;5.53;100.00;100259.78;6358760;27;20042;-80
2022/01/01 05:31:33;;;;;;;93.07;20.98;;;;;;;5.63;100.00;100258.53;6376936;27;20100;-80
2022/01/01 05:34:34;;;;;;;66.15;18.90;;;;;;;5.68;100.00;100273.06;6375608;27;20040;-80
2022/01/01 05:37:35;;;;;;;103.97;22.55;;;;;;;5.37;100.00;100276.75;6374497;27;20411;-80
2022/01/01 05:40:36;;;;;;;109.28;24.15;;;;;;;5.35;100.00;100283.72;6374135;27;20179;-80
2022/01/01 05:43:37;;;;;;;98.32;21.08;;;;;;;5.29;100.00;100269.25;6373603;27;20035;-81
2022/01/01 05:46:38;;;;;;;81.53;19.95;;;;;;;5.16;100.00;100280.97;6362061;27;20047;-87
2022/01/01 05:49:39;;;;;;;93.18;19.67;;;;;;;5.23;100.00;100282.44;6375422;27;20039;-87
2022/01/01 05:52:40;;;;;;;135.00;21.65;;;;;;;5.21;100.00;100298.00;6360435;27;20047;-87
2022/01/01 05:55:41;;;;;;;132.75;21.88;;;;;;;5.18;100.00;100303.28;6377538;27;20089;-80
2022/01/01 05:58:42;;;;;;;84.57;21.50;;;;;;;5.19;100.00;100299.81;6340277;27;20043;-80
2022/01/01 06:01:42;;;;;;;159.77;22.08;;;;;;;5.22;100.00;100291.94;6374279;27;20039;-80
2022/01/01 06:04:43;;;;;;;193.07;21.35;;;;;;;5.24;100.00;100297.06;6357008;27;20046;-80
2022/01/01 06:07:44;;;;;;;163.60;21.65;;;;;;;5.22;100.00;100309.19;6374077;27;20050;-80
2022/01/01 06:10:45;;;;;;;107.95;19.35;;;;;;;5.20;100.00;100311.84;6357248;27;20044;-80
2022/01/01 06:13:45;;;;;;;133.98;20.02;;;;;;;5.21;100.00;100303.19;6357017;27;20055;-86
2022/01/01 06:16:47;;;;;;;99.50;18.73;;;;;;;5.24;100.00;100297.06;6374561;27;20047;-87
2022/01/01 06:19:48;;;;;;;218.40;23.98;;;;;;;5.08;100.00;100309.66;6373316;27;20074;-80
2022/01/01 06:22:49;;;;;;;89.43;24.33;;;;;;;5.12;100.00;100311.25;6373837;27;20080;-80
2022/01/01 06:25:50;;;;;;;123.75;24.83;;;;;;;5.03;100.00;100294.31;6373896;27;20129;-80
2022/01/01 06:28:51;;;;;;;89.55;21.88;;;;;;;5.09;100.00;100310.53;6375247;27;20043;-80
2022/01/01 06:31:52;;;;;;;119.88;25.30;;;;;;;5.12;100.00;100321.59;6374000;27;20553;-87
2022/01/01 06:34:53;;;;;;;104.95;24.30;;;;;;;5.13;100.00;100338.81;6375319;27;20398;-86
2022/01/01 06:37:54;;;;;;;127.05;22.98;;;;;;;5.04;100.00;100352.91;6340148;27;20039;-87
2022/01/01 06:40:54;;;;;;;152.70;21.30;;;;;;;5.00;100.00;100351.31;6375211;27;20043;-87
2022/01/01 06:43:55;;;;;;;63.53;19.38;;;;;;;5.03;100.00;100345.19;6373425;27;20086;-80
2022/01/01 06:46:56;;;;;;;197.25;19.10;;;;;;;4.97;100.00;100348.00;6373323;27;20114;-80
2022/01/01 06:49:57;;;;;;;52.35;16.95;;;;;;;5.05;100.00;100359.75;6373632;27;20122;-87
2022/01/01 06:52:58;;;;;;;158.07;19.10;;;;;;;4.91;100.00;100366.28;6374577;27;20582;-86
2022/01/01 06:56:05;;;;;;;135.20;17.30;;;;;;;4.94;100.00;100368.75;6355578;27;20486;-81
2022/01/01 06:59:07;;;;;;;124.70;18.17;;;;;;;4.75;100.00;100369.34;6357191;27;20042;-87
2022/01/01 07:02:07;;;;;;;84.60;19.00;;;;;;;4.85;100.00;100372.50;6374584;27;20096;-81
2022/01/01 07:05:10;;;;;;;77.25;19.88;;;;;;;4.88;100.00;100374.13;6373952;27;20043;-81
2022/01/01 07:08:11;;;;;;;117.40;27.98;;;;;;;4.76;100.00;100375.41;6373839;27;20751;-81
2022/01/01 07:11:12;;;;;;;134.02;21.63;;;;;;;4.82;100.00;100373.44;6373715;27;20039;-80
2022/01/01 07:14:13;;;;;;;84.63;19.73;;;;;;;4.81;100.00;100365.75;6372247;27;20055;-81
2022/01/01 07:17:14;;;;;;;77.07;20.08;;;;;;;4.80;100.00;100362.31;6355585;27;20043;-81
2022/01/01 07:20:15;;;;;;;173.00;29.48;;;;;;;4.78;100.00;100347.75;6372441;27;20043;-80
2022/01/01 07:23:16;;;;;;;110.63;22.50;;;;;;;4.71;100.00;100352.25;6372351;27;20035;-81
2022/01/01 07:26:17;;;;;;;102.80;24.08;;;;;;;4.77;100.00;100367.56;6372425;27;20101;-80
2022/01/01 07:29:18;;;;;;;94.18;21.30;;;;;;;4.68;100.00;100347.19;6373500;27;20483;-80
2022/01/01 07:32:19;;;;;;;73.72;24.52;;;;;;;4.81;100.00;100376.06;6320965;27;20054;-81
2022/01/01 07:35:21;;;;;;;66.78;23.80;;;;;;;4.80;100.00;100367.50;6337676;27;20039;-81
2022/01/01 07:38:23;;;;;;;76.90;28.83;;;;;;;4.83;100.00;100367.38;6372160;27;20087;-80
2022/01/01 07:41:24;;;;;;;133.35;35.80;;;;;;;4.84;100.00;100391.50;6371899;27;20059;-80
2022/01/01 07:44:25;;;;;;;154.23;48.17;;;;;;;4.89;100.00;100401.69;6354806;27;20047;-81
2022/01/01 07:47:27;;;;;;;245.13;54.00;;;;;;;4.46;100.00;100400.44;6372200;27;20039;-87
2022/01/01 07:50:27;;;;;;;157.00;49.43;;;;;;;4.67;100.00;100402.34;6372650;27;20043;-87
2022/01/01 07:53:28;;;;;;;166.98;49.17;;;;;;;4.76;100.00;100399.50;6355607;27;20039;-87
2022/01/01 07:56:29;;;;;;;129.35;31.67;;;;;;;4.87;100.00;100403.50;6372611;27;20050;-87
2022/01/01 07:59:30;;;;;;;154.55;19.75;;;;;;;4.77;100.00;100414.09;6372458;27;20043;-88
2022/01/01 08:02:31;;;;;;;221.60;20.40;;;;;;;4.84;100.00;100414.78;6371737;27;20108;-80
2022/01/01 08:05:32;;;;;;;203.75;23.77;;;;;;;4.90;100.00;100403.38;6371850;28;20047;-80
2022/01/01 08:08:32;;;;;;;195.82;21.63;;;;;;;4.95;100.00;100422.19;6361173;27;20066;-80
2022/01/01 08:11:34;;;;;;;328.08;22.33;;;;;;;5.01;100.00;100409.91;6380080;27;20076;-86
2022/01/01 08:14:34;;;;;;;272.25;21.88;;;;;;;5.03;100.00;100402.94;6381893;27;20117;-87
2022/01/01 08:17:35;;;;;;;324.48;21.15;;;;;;;5.09;100.00;100414.00;6380702;27;20039;-87
2022/01/01 08:20:36;;;;;;;324.80;20.77;;;;;;;5.08;100.00;100433.81;6363105;27;20524;-80
2022/01/01 08:23:37;;;;;;;272.42;20.13;;;;;;;5.03;100.00;100436.56;6362219;27;20069;-81
2022/01/01 08:26:38;;;;;;;338.77;18.92;;;;;;;5.09;100.00;100438.13;6379338;27;20073;-86
2022/01/01 08:29:39;;;;;;;339.05;20.42;;;;;;;5.11;100.00;100433.75;6379970;27;20039;-81
2022/01/01 08:32:40;;;;;;;174.73;14.77;;;;;;;5.05;100.00;100441.69;6362542;27;20066;-81
2022/01/01 08:35:41;;;;;;;113.68;15.98;;;;;;;5.05;100.00;100459.81;6362853;27;20043;-85
2022/01/01 08:38:41;;;;;;;112.57;15.18;;;;;;;5.03;100.00;100459.84;6380037;27;20050;-85
2022/01/01 08:41:44;;;;;;;201.70;17.13;;;;;;;5.10;100.00;100457.91;6345874;27;20039;-85
2022/01/01 08:44:45;;;;;;;114.15;16.25;;;;;;;5.14;100.00;100466.41;6362987;27;20473;-81
2022/01/01 08:47:46;;;;;;;112.43;17.92;;;;;;;5.12;100.00;100461.28;6381059;27;20099;-87
2022/01/01 08:50:47;;;;;;;98.88;14.55;;;;;;;5.29;100.00;100467.66;6379910;27;20039;-86
2022/01/01 08:53:48;;;;;;;72.45;12.90;;;;;;;5.12;100.00;100452.69;6380107;27;20043;-86
2022/01/01 08:56:49;;;;;;;97.83;14.53;;;;;;;5.12;100.00;100450.09;6379854;27;20049;-80
2022/01/01 08:59:50;;;;;;;103.93;14.63;;;;;;;5.20;100.00;100451.53;6380507;27;20043;-80
2022/01/01 09:02:51;;;;;;;156.23;15.68;;;;;;;5.12;100.00;100466.44;6343765;27;20372;-85
2022/01/01 09:05:52;;;;;;;83.72;13.45;;;;;;;5.32;100.00;100468.41;6345409;27;20486;-86
2022/01/01 09:08:52;;;;;;;85.97;12.93;;;;;;;5.33;100.00;100477.00;6380819;27;20043;-85
2022/01/01 09:11:53;;;;;;;143.13;13.88;;;;;;;5.31;100.00;100471.03;6380683;27;20042;-85
2022/01/01 09:14:56;;;;;;;111.50;14.38;;;;;;;5.30;100.00;100467.59;6345500;27;20043;-87
2022/01/01 09:17:56;;;;;;;139.02;15.80;;;;;;;5.34;100.00;100461.44;6362324;27;20039;-86
2022/01/01 09:20:57;;;;;;;145.32;12.70;;;;;;;5.33;100.00;100477.84;6374705;27;20497;-86
2022/01/01 09:23:58;;;;;;;137.35;13.95;;;;;;;5.21;100.00;100488.63;6375502;27;20135;-86
2022/01/01 09:26:59;;;;;;;73.43;13.65;;;;;;;5.25;100.00;100488.47;6375559;27;20479;-80
2022/01/01 09:30:00;;;;;;;143.48;14.93;;;;;;;5.36;100.00;100482.94;6375105;27;20040;-80
2022/01/01 09:33:02;;;;;;;175.68;14.90;;;;;;;5.23;100.00;100487.66;6375086;27;20047;-80
2022/01/01 09:36:05;;;;;;;156.90;14.13;;;;;;;5.28;100.00;100495.28;6374399;27;20043;-86
2022/01/01 09:39:07;;;;;;;121.50;15.88;;;;;;;5.39;100.00;100507.88;6374911;27;20050;-86
2022/01/01 09:42:10;;;;;;;137.73;15.02;;;;;;;5.50;100.00;100498.03;6374683;27;20050;-86
2022/01/01 09:45:11;;;;;;;164.25;16.42;;;;;;;5.53;100.00;100500.50;6376461;27;20104;-86
2022/01/01 09:48:12;;;;;;;160.15;16.40;;;;;;;5.49;100.00;100498.06;6341132;27;20445;-86
2022/01/01 09:51:14;;;;;;;188.52;18.75;;;;;;;5.53;100.00;100503.09;6358207;27;20384;-86
2022/01/01 09:54:15;;;;;;;117.57;17.40;;;;;;;5.68;100.00;100496.53;6374857;27;20430;-86
2022/01/01 09:57:15;;;;;;;104.88;16.85;;;;;;;5.91;100.00;100489.72;6357781;27;20054;-86
2022/01/01 10:00:16;;;;;;;71.47;14.70;;;;;;;5.72;100.00;100484.34;6374942;27;20050;-85
2022/01/01 10:03:17;;;;;;;90.20;16.38;;;;;;;5.78;100.00;100491.91;6375626;27;20122;-80
2022/01/01 10:06:20;;;;;;;153.93;17.50;;;;;;;5.54;100.00;100488.41;6356436;27;20103;-80
2022/01/01 10:09:33;;;;;;;207.55;20.55;;;;;;;5.35;100.00;100473.47;6375596;27;20081;-80
2022/01/01 10:12:39;;;;;;;122.63;26.05;;;;;;;5.51;100.00;100480.75;6374572;27;20048;-80
2022/01/01 10:15:40;;;;;;;108.28;21.60;;;;;;;5.61;100.00;100476.94;6374410;27;20448;-80
2022/01/01 10:18:43;;;;;;;102.05;20.75;;;;;;;5.68;100.00;100475.84;6373663;27;20043;-85
2022/01/01 10:21:50;;;;;;;105.82;17.23;;;;;;;5.76;100.00;100470.41;6375693;27;20042;-86
2022/01/01 10:28:29;;;;;;;96.60;16.27;;;;;;;5.73;100.00;100461.00;6371198;27;20047;-80
2022/01/01 10:31:33;;;;;;;73.32;18.45;;;;;;;5.86;100.00;100464.00;6352560;27;20103;-80
2022/01/01 10:34:36;;;;;;;67.63;18.35;;;;;;;5.99;100.00;100467.03;6373074;27;20043;-85
2022/01/01 10:37:40;;;;;;;75.95;19.38;;;;;;;6.12;100.00;100488.19;6373867;27;20039;-85
2022/01/01 10:40:43;;;;;;;70.57;20.48;;;;;;;6.38;100.00;100482.91;6355684;27;20530;-86
2022/01/01 10:43:45;;;;;;;79.90;20.65;;;;;;;6.31;100.00;100470.22;6372446;27;20041;-81
2022/01/01 10:46:46;;;;;;;71.10;21.80;;;;;;;6.05;100.00;100474.59;6355332;27;20046;-80
2022/01/01 10:52:48;;;;;;;95.30;21.50;;;;;;;6.25;100.00;100505.81;6373784;27;20039;-87
2022/01/01 10:55:58;;;;;;;103.93;28.55;;;;;;;6.30;100.00;100504.81;6355670;27;20298;-86
2022/01/01 10:59:00;;;;;;;104.97;23.58;;;;;;;6.32;100.00;100503.88;6372529;27;20039;-86
2022/01/01 11:02:00;;;;;;;91.85;19.63;;;;;;;6.34;100.00;100515.03;6372394;27;20046;-86
2022/01/01 11:05:03;;;;;;;121.22;18.42;;;;;;;6.46;100.00;100511.13;6372295;27;20039;-80
2022/01/01 11:08:07;;;;;;;56.90;18.45;;;;;;;6.55;100.00;100515.16;6338447;27;20047;-80
2022/01/01 11:11:10;;;;;;;41.70;18.83;;;;;;;6.65;100.00;100525.13;6372326;27;20074;-80
2022/01/01 11:14:11;;;;;;;78.40;19.65;;;;;;;6.77;100.00;100504.78;6371597;27;20059;-80
2022/01/01 11:17:13;;;;;;;136.48;20.10;;;;;;;6.84;100.00;100509.69;6371359;27;20051;-86
2022/01/01 11:20:15;;;;;;;99.93;29.40;;;;;;;6.74;100.00;100497.16;6354616;27;20039;-85
2022/01/01 11:23:18;;;;;;;89.35;25.20;;;;;;;6.84;100.00;100503.66;6354578;27;20526;-80
2022/01/01 11:26:20;;;;;;;;;;;;;;;6.77;100.00;100497.00;6371771;27;20380;-80
2022/01/01 11:29:22;;;;;;;181.00;20.23;;;;;;;6.74;100.00;100510.94;6371351;27;19927;-80
2022/01/01 11:32:29;;;;;;;56.00;18.97;;;;;;;6.69;100.00;100512.84;6371185;27;20118;-85
2022/01/01 11:35:34;;;;;;;105.32;21.05;;;;;;;6.86;100.00;100499.28;6371158;27;20035;-85
2022/01/01 11:38:36;;;;;;;82.88;21.30;;;;;;;6.81;100.00;100486.44;6370382;27;20419;-79
2022/01/01 11:41:39;;;;;;;59.10;23.35;;;;;;;6.90;100.00;100500.84;6350014;27;20043;-80
2022/01/01 11:44:50;;;;;;;73.20;25.92;;;;;;;7.02;100.00;100507.28;6354794;27;20041;-80
2022/01/01 11:47:51;;;;;;;113.63;21.08;;;;;;;7.05;100.00;100489.00;6368060;27;20039;-80
2022/01/01 11:50:52;;;;;;;91.95;21.23;;;;;;;7.13;100.00;100480.94;6354554;27;20046;-80
2022/01/01 11:54:32;;;;;;;110.15;22.83;;;;;;;7.04;100.00;100484.72;6371268;27;20043;-79
2022/01/01 11:57:33;;;;;;;67.30;20.00;;;;;;;7.06;100.00;100473.41;6371791;27;20035;-87
2022/01/01 12:00:34;;;;;;;101.25;21.85;;;;;;;7.20;100.00;100464.19;6351878;27;20035;-86
2022/01/01 12:03:51;;;;;;;101.28;21.58;;;;;;;7.15;100.00;100461.78;6370562;27;20038;-85
2022/01/01 12:07:13;;;;;;;65.88;21.33;;;;;;;7.40;100.00;100477.22;6371628;27;20047;-86
2022/01/01 12:10:18;;;;;;;58.47;22.42;;;;;;;7.45;100.00;100482.19;6359562;28;20063;-80
2022/01/01 12:13:19;;;;;;;94.78;22.95;;;;;;;7.43;100.00;100476.22;6369058;27;20448;-80
2022/01/01 12:16:21;;;;;;;75.70;22.17;;;;;;;7.48;100.00;100484.69;6367501;27;20122;-86
2022/01/01 12:19:24;;;;;;;86.07;26.17;;;;;;;7.66;100.00;100477.91;6371165;27;20148;-86
2022/01/01 12:22:25;;;;;;;67.07;25.60;;;;;;;7.74;100.00;100486.22;6369819;28;20036;-86
2022/01/01 12:25:29;;;;;;;40.83;24.67;;;;;;;7.80;100.00;100485.94;6369941;28;20047;-86
2022/01/01 12:28:34;;;;;;;43.72;24.90;;;;;;;8.03;100.00;100490.16;6353331;28;20808;-86
2022/01/01 12:31:35;;;;;;;43.00;24.75;;;;;;;8.34;100.00;100495.72;6371241;27;20479;-86
2022/01/01 12:34:38;;;;;;;46.30;26.33;;;;;;;8.54;100.00;100503.50;6352552;28;20043;-86
2022/01/01 12:37:39;;;;;;;44.70;27.40;;;;;;;8.84;100.00;100514.28;6370734;27;20043;-79
2022/01/01 12:40:56;;;;;;;46.28;28.70;;;;;;;9.00;100.00;100510.97;6369626;28;20115;-86
2022/01/01 12:44:07;;;;;;;43.08;26.58;;;;;;;9.13;100.00;100513.84;6370954;27;20040;-81
2022/01/01 12:47:11;;;;;;;40.88;23.98;;;;;;;9.19;100.00;100518.75;6370359;28;20039;-85
2022/01/01 12:50:12;;;;;;;37.28;23.48;;;;;;;9.09;100.00;100497.50;6371571;27;20043;-85
2022/01/01 12:53:18;;;;;;;35.35;21.23;;;;;;;9.22;100.00;100509.00;6354167;27;20118;-87
2022/01/01 12:56:20;;;;;;;36.60;22.20;;;;;;;9.14;100.00;100516.38;6374815;27;20035;-86
2022/01/01 12:59:21;;;;;;;35.80;21.50;;;;;;;9.16;100.00;100518.88;6375128;27;20043;-86
2022/01/01 13:02:23;;;;;;;32.58;18.90;;;;;;;9.16;100.00;100518.88;6374743;27;20050;-86
2022/01/01 13:05:24;;;;;;;32.13;18.92;;;;;;;9.17;100.00;100513.59;6376418;27;20044;-86
2022/01/01 13:08:29;;;;;;;31.90;20.13;;;;;;;9.23;100.00;100512.47;6374827;27;20039;-86
2022/01/01 13:11:31;;;;;;;31.05;20.85;;;;;;;9.15;100.00;100505.03;6376164;27;20063;-86
2022/01/01 13:14:34;;;;;;;30.85;19.25;;;;;;;9.15;100.00;100507.63;6375524;27;20436;-80
2022/01/01 13:17:39;;;;;;;39.17;23.10;;;;;;;9.13;100.00;100519.03;6374858;27;20138;-80
2022/01/01 13:20:40;;;;;;;37.80;22.40;;;;;;;9.25;100.00;100534.06;6374562;27;20510;-80
2022/01/01 13:23:41;;;;;;;42.05;25.45;;;;;;;9.27;100.00;100534.84;6357108;27;20039;-80
2022/01/01 13:26:45;;;;;;;38.03;24.60;;;;;;;9.31;100.00;100539.00;6374046;27;20047;-80
2022/01/01 13:29:46;;;;;;;38.15;22.83;;;;;;;9.35;100.00;100529.25;6372152;27;20039;-81
2022/01/01 13:32:48;;;;;;;35.58;22.38;;;;;;;9.36;100.00;100536.16;6372687;27;20143;-80
2022/01/01 13:35:58;;;;;;;32.20;19.65;;;;;;;9.39;100.00;100542.06;6356025;27;20043;-87
2022/01/01 13:39:02;;;;;;;34.58;20.33;;;;;;;9.37;100.00;100541.31;6357373;27;20119;-80
2022/01/01 13:42:03;;;;;;;66.18;36.17;;;;;;;9.35;100.00;100535.31;6374224;27;20063;-87
2022/01/01 13:45:05;;;;;;;39.85;23.05;;;;;;;9.34;100.00;100538.00;6375149;27;20043;-87
2022/01/01 13:48:11;;;;;;;32.93;18.70;;;;;;;9.30;100.00;100537.28;6375155;27;20069;-81
2022/01/01 13:51:14;;;;;;;31.40;17.33;;;;;;;9.32;100.00;100539.84;6374856;27;20120;-80
2022/01/01 13:54:21;;;;;;;31.67;18.20;;;;;;;9.30;100.00;100534.69;6356719;27;20074;-81